Terminal Aerodrome Forecast
Issued by NWS Twin Cities, MN

Home | Current Version | Previous Version | Text Only | Print | Product List | Glossary Off
Versions: 1 2 3 4 5 6 7 8 9 10 11 12 13 14 15 16 17 18 19 20 21 22 23 24 25 26 27 28 29 30 31

000
FTUS43 KMPX 241121
TAFMSP
TAF
KMSP 241121Z 2412/2518 25004KT 6SM BR BKN150
     FM241400 25005KT P6SM BKN120
     FM242000 22004KT P6SM OVC020
     FM250200 03010KT 2SM -SN OVC012
      TEMPO 2503/2507 3/4SM -SN VV006
     FM250800 03011G20KT 3SM -SN OVC014
     FM251200 03012KT P6SM SCT015 BKN070=

USA.gov is the U.S. government's official web portal to all federal, state and local government web resources and services.